sensor_id;sensor_type;location;lat;lon;timestamp;P1;durP1;ratioP1;P2;durP2;ratioP2
21611;SDS011;47005;52.292;13.452;2023-05-23T00:00:39;6.60;;;3.92;;
21611;SDS011;47005;52.292;13.452;2023-05-23T00:03:05;5.40;;;3.47;;
21611;SDS011;47005;52.292;13.452;2023-05-23T00:05:32;5.30;;;3.03;;
21611;SDS011;47005;52.292;13.452;2023-05-23T00:07:59;7.65;;;3.80;;
21611;SDS011;47005;52.292;13.452;2023-05-23T00:10:25;6.10;;;3.10;;
21611;SDS011;47005;52.292;13.452;2023-05-23T00:12:53;10.88;;;3.95;;
21611;SDS011;47005;52.292;13.452;2023-05-23T00:15:19;6.60;;;4.00;;
21611;SDS011;47005;52.292;13.452;2023-05-23T00:17:45;8.15;;;3.90;;
21611;SDS011;47005;52.292;13.452;2023-05-23T00:20:10;6.75;;;4.10;;
21611;SDS011;47005;52.292;13.452;2023-05-23T00:22:37;6.43;;;3.65;;
21611;SDS011;47005;52.292;13.452;2023-05-23T00:25:06;7.75;;;4.15;;
21611;SDS011;47005;52.292;13.452;2023-05-23T00:27:35;6.07;;;3.95;;
21611;SDS011;47005;52.292;13.452;2023-05-23T00:30:01;6.95;;;3.85;;
21611;SDS011;47005;52.292;13.452;2023-05-23T00:32:27;9.73;;;3.80;;
21611;SDS011;47005;52.292;13.452;2023-05-23T00:34:53;11.20;;;3.45;;
21611;SDS011;47005;52.292;13.452;2023-05-23T00:37:20;7.70;;;3.00;;
21611;SDS011;47005;52.292;13.452;2023-05-23T00:39:46;4.63;;;3.13;;
21611;SDS011;47005;52.292;13.452;2023-05-23T00:42:12;7.22;;;4.05;;
21611;SDS011;47005;52.292;13.452;2023-05-23T00:44:38;7.43;;;3.47;;
21611;SDS011;47005;52.292;13.452;2023-05-23T00:47:04;8.23;;;3.72;;
21611;SDS011;47005;52.292;13.452;2023-05-23T00:49:32;5.80;;;3.55;;
21611;SDS011;47005;52.292;13.452;2023-05-23T00:51:58;8.45;;;3.90;;
21611;SDS011;47005;52.292;13.452;2023-05-23T00:54:28;4.45;;;3.17;;
21611;SDS011;47005;52.292;13.452;2023-05-23T00:56:57;5.20;;;3.35;;
21611;SDS011;47005;52.292;13.452;2023-05-23T00:59:24;6.60;;;4.38;;
21611;SDS011;47005;52.292;13.452;2023-05-23T01:01:50;9.80;;;4.38;;
21611;SDS011;47005;52.292;13.452;2023-05-23T01:04:17;6.65;;;3.72;;
21611;SDS011;47005;52.292;13.452;2023-05-23T01:06:50;7.22;;;4.15;;
21611;SDS011;47005;52.292;13.452;2023-05-23T01:09:18;6.57;;;4.15;;
21611;SDS011;47005;52.292;13.452;2023-05-23T01:17:23;6.63;;;4.50;;
21611;SDS011;47005;52.292;13.452;2023-05-23T01:20:00;8.18;;;3.78;;
21611;SDS011;47005;52.292;13.452;2023-05-23T01:22:36;9.20;;;4.13;;
21611;SDS011;47005;52.292;13.452;2023-05-23T01:27:55;7.63;;;4.55;;
21611;SDS011;47005;52.292;13.452;2023-05-23T01:30:25;6.25;;;4.72;;
21611;SDS011;47005;52.292;13.452;2023-05-23T01:32:54;6.85;;;3.65;;
21611;SDS011;47005;52.292;13.452;2023-05-23T01:35:25;8.63;;;4.40;;
21611;SDS011;47005;52.292;13.452;2023-05-23T01:37:52;7.18;;;4.63;;
21611;SDS011;47005;52.292;13.452;2023-05-23T01:40:18;6.22;;;4.53;;
21611;SDS011;47005;52.292;13.452;2023-05-23T01:42:44;8.13;;;4.50;;
21611;SDS011;47005;52.292;13.452;2023-05-23T01:45:10;5.82;;;3.72;;
21611;SDS011;47005;52.292;13.452;2023-05-23T01:47:37;7.22;;;3.90;;
21611;SDS011;47005;52.292;13.452;2023-05-23T01:50:04;6.90;;;4.30;;
21611;SDS011;47005;52.292;13.452;2023-05-23T01:52:31;6.75;;;4.20;;
21611;SDS011;47005;52.292;13.452;2023-05-23T01:54:58;11.85;;;4.65;;
21611;SDS011;47005;52.292;13.452;2023-05-23T01:57:24;7.30;;;4.30;;
21611;SDS011;47005;52.292;13.452;2023-05-23T01:59:52;7.68;;;4.68;;
21611;SDS011;47005;52.292;13.452;2023-05-23T02:02:18;5.95;;;4.30;;
21611;SDS011;47005;52.292;13.452;2023-05-23T02:04:44;5.85;;;4.05;;
21611;SDS011;47005;52.292;13.452;2023-05-23T02:07:09;6.68;;;4.00;;
21611;SDS011;47005;52.292;13.452;2023-05-23T02:09:35;6.15;;;4.28;;
21611;SDS011;47005;52.292;13.452;2023-05-23T02:12:01;14.02;;;4.32;;
21611;SDS011;47005;52.292;13.452;2023-05-23T02:14:26;7.43;;;4.70;;
21611;SDS011;47005;52.292;13.452;2023-05-23T02:16:52;11.27;;;4.35;;
21611;SDS011;47005;52.292;13.452;2023-05-23T02:19:18;5.47;;;3.75;;
21611;SDS011;47005;52.292;13.452;2023-05-23T02:21:44;6.10;;;4.05;;
21611;SDS011;47005;52.292;13.452;2023-05-23T02:24:09;5.25;;;3.83;;
21611;SDS011;47005;52.292;13.452;2023-05-23T02:26:35;7.85;;;4.07;;
21611;SDS011;47005;52.292;13.452;2023-05-23T02:29:01;6.25;;;4.15;;
21611;SDS011;47005;52.292;13.452;2023-05-23T02:31:27;6.90;;;3.90;;
21611;SDS011;47005;52.292;13.452;2023-05-23T02:33:53;6.68;;;4.22;;
21611;SDS011;47005;52.292;13.452;2023-05-23T02:36:18;6.25;;;4.35;;
21611;SDS011;47005;52.292;13.452;2023-05-23T02:38:44;6.28;;;4.18;;
21611;SDS011;47005;52.292;13.452;2023-05-23T02:41:10;9.45;;;4.40;;
21611;SDS011;47005;52.292;13.452;2023-05-23T02:43:36;6.45;;;4.30;;
21611;SDS011;47005;52.292;13.452;2023-05-23T02:46:02;7.03;;;4.25;;
21611;SDS011;47005;52.292;13.452;2023-05-23T02:48:28;7.70;;;4.35;;
21611;SDS011;47005;52.292;13.452;2023-05-23T02:50:53;7.25;;;4.05;;
21611;SDS011;47005;52.292;13.452;2023-05-23T02:53:19;5.15;;;3.58;;
21611;SDS011;47005;52.292;13.452;2023-05-23T02:55:46;6.68;;;4.25;;
21611;SDS011;47005;52.292;13.452;2023-05-23T02:58:12;8.38;;;3.70;;
21611;SDS011;47005;52.292;13.452;2023-05-23T03:00:38;8.30;;;4.55;;
21611;SDS011;47005;52.292;13.452;2023-05-23T03:03:03;7.72;;;4.40;;
21611;SDS011;47005;52.292;13.452;2023-05-23T03:05:29;6.95;;;4.40;;
21611;SDS011;47005;52.292;13.452;2023-05-23T03:07:54;7.03;;;4.22;;
21611;SDS011;47005;52.292;13.452;2023-05-23T03:10:21;10.55;;;3.63;;
21611;SDS011;47005;52.292;13.452;2023-05-23T03:12:47;7.13;;;4.55;;
21611;SDS011;47005;52.292;13.452;2023-05-23T03:15:12;7.13;;;4.85;;
21611;SDS011;47005;52.292;13.452;2023-05-23T03:17:38;8.55;;;4.60;;
21611;SDS011;47005;52.292;13.452;2023-05-23T03:20:04;9.65;;;3.97;;
21611;SDS011;47005;52.292;13.452;2023-05-23T03:22:33;5.85;;;4.10;;
21611;SDS011;47005;52.292;13.452;2023-05-23T03:24:59;8.75;;;4.65;;
21611;SDS011;47005;52.292;13.452;2023-05-23T03:27:25;7.28;;;4.57;;
21611;SDS011;47005;52.292;13.452;2023-05-23T03:29:51;5.32;;;3.45;;
21611;SDS011;47005;52.292;13.452;2023-05-23T03:32:16;6.05;;;4.10;;
21611;SDS011;47005;52.292;13.452;2023-05-23T03:34:42;6.53;;;4.32;;
21611;SDS011;47005;52.292;13.452;2023-05-23T03:37:08;10.02;;;4.38;;
21611;SDS011;47005;52.292;13.452;2023-05-23T03:39:33;6.15;;;4.22;;
21611;SDS011;47005;52.292;13.452;2023-05-23T03:41:59;8.10;;;4.43;;
21611;SDS011;47005;52.292;13.452;2023-05-23T03:44:24;11.30;;;5.45;;
21611;SDS011;47005;52.292;13.452;2023-05-23T03:46:51;9.70;;;4.75;;
21611;SDS011;47005;52.292;13.452;2023-05-23T03:49:16;8.20;;;4.78;;
21611;SDS011;47005;52.292;13.452;2023-05-23T03:51:42;8.65;;;4.85;;
21611;SDS011;47005;52.292;13.452;2023-05-23T03:54:07;9.93;;;4.82;;
21611;SDS011;47005;52.292;13.452;2023-05-23T03:56:33;8.10;;;4.70;;
21611;SDS011;47005;52.292;13.452;2023-05-23T03:58:59;7.82;;;5.18;;
21611;SDS011;47005;52.292;13.452;2023-05-23T04:01:25;7.10;;;3.97;;
21611;SDS011;47005;52.292;13.452;2023-05-23T04:03:51;8.90;;;4.40;;
21611;SDS011;47005;52.292;13.452;2023-05-23T04:06:17;7.40;;;5.50;;
21611;SDS011;47005;52.292;13.452;2023-05-23T04:08:44;10.85;;;5.60;;
21611;SDS011;47005;52.292;13.452;2023-05-23T04:11:10;10.52;;;4.97;;
21611;SDS011;47005;52.292;13.452;2023-05-23T04:13:35;9.50;;;5.45;;
21611;SDS011;47005;52.292;13.452;2023-05-23T04:16:02;14.20;;;5.15;;
21611;SDS011;47005;52.292;13.452;2023-05-23T04:18:30;8.65;;;5.00;;
21611;SDS011;47005;52.292;13.452;2023-05-23T04:20:57;9.68;;;5.65;;
21611;SDS011;47005;52.292;13.452;2023-05-23T04:23:23;9.15;;;4.85;;
21611;SDS011;47005;52.292;13.452;2023-05-23T04:25:49;6.95;;;4.47;;
21611;SDS011;47005;52.292;13.452;2023-05-23T04:28:15;9.38;;;5.57;;
21611;SDS011;47005;52.292;13.452;2023-05-23T04:30:43;7.65;;;5.10;;
21611;SDS011;47005;52.292;13.452;2023-05-23T04:33:08;9.02;;;5.53;;
21611;SDS011;47005;52.292;13.452;2023-05-23T04:35:35;8.75;;;5.45;;
21611;SDS011;47005;52.292;13.452;2023-05-23T04:38:04;9.13;;;4.88;;
21611;SDS011;47005;52.292;13.452;2023-05-23T04:40:30;10.82;;;5.07;;
21611;SDS011;47005;52.292;13.452;2023-05-23T04:42:55;8.25;;;4.68;;
21611;SDS011;47005;52.292;13.452;2023-05-23T04:45:21;10.70;;;4.95;;
21611;SDS011;47005;52.292;13.452;2023-05-23T04:47:47;8.32;;;5.38;;
21611;SDS011;47005;52.292;13.452;2023-05-23T04:50:13;8.00;;;5.07;;
21611;SDS011;47005;52.292;13.452;2023-05-23T04:52:39;12.55;;;6.03;;
21611;SDS011;47005;52.292;13.452;2023-05-23T04:55:05;8.30;;;5.18;;
21611;SDS011;47005;52.292;13.452;2023-05-23T04:57:32;7.03;;;4.55;;
21611;SDS011;47005;52.292;13.452;2023-05-23T04:59:58;8.48;;;5.32;;
21611;SDS011;47005;52.292;13.452;2023-05-23T05:02:25;7.55;;;5.32;;
21611;SDS011;47005;52.292;13.452;2023-05-23T05:04:51;6.85;;;5.20;;
21611;SDS011;47005;52.292;13.452;2023-05-23T05:07:17;9.77;;;5.93;;
21611;SDS011;47005;52.292;13.452;2023-05-23T05:09:43;9.90;;;5.47;;
21611;SDS011;47005;52.292;13.452;2023-05-23T05:12:09;8.35;;;5.65;;
21611;SDS011;47005;52.292;13.452;2023-05-23T05:14:36;12.48;;;5.68;;
21611;SDS011;47005;52.292;13.452;2023-05-23T05:17:01;6.95;;;5.25;;
21611;SDS011;47005;52.292;13.452;2023-05-23T05:19:28;9.77;;;5.45;;
21611;SDS011;47005;52.292;13.452;2023-05-23T05:21:53;6.88;;;4.90;;
21611;SDS011;47005;52.292;13.452;2023-05-23T05:24:19;13.85;;;5.90;;
21611;SDS011;47005;52.292;13.452;2023-05-23T05:26:47;7.55;;;5.30;;
21611;SDS011;47005;52.292;13.452;2023-05-23T05:29:13;8.02;;;5.47;;
21611;SDS011;47005;52.292;13.452;2023-05-23T05:31:39;8.18;;;5.97;;
21611;SDS011;47005;52.292;13.452;2023-05-23T05:34:04;11.27;;;5.88;;
21611;SDS011;47005;52.292;13.452;2023-05-23T05:36:30;7.70;;;5.85;;
21611;SDS011;47005;52.292;13.452;2023-05-23T05:38:56;12.77;;;6.10;;
21611;SDS011;47005;52.292;13.452;2023-05-23T05:41:22;9.88;;;5.75;;
21611;SDS011;47005;52.292;13.452;2023-05-23T05:43:47;8.63;;;5.78;;
21611;SDS011;47005;52.292;13.452;2023-05-23T05:46:13;9.93;;;6.40;;
21611;SDS011;47005;52.292;13.452;2023-05-23T05:48:39;7.70;;;5.50;;
21611;SDS011;47005;52.292;13.452;2023-05-23T05:51:04;9.35;;;5.82;;
21611;SDS011;47005;52.292;13.452;2023-05-23T05:53:30;9.35;;;6.30;;
21611;SDS011;47005;52.292;13.452;2023-05-23T05:55:56;7.30;;;5.93;;
21611;SDS011;47005;52.292;13.452;2023-05-23T05:58:21;11.27;;;6.38;;
21611;SDS011;47005;52.292;13.452;2023-05-23T06:00:47;9.50;;;5.80;;
21611;SDS011;47005;52.292;13.452;2023-05-23T06:03:13;8.77;;;6.28;;
21611;SDS011;47005;52.292;13.452;2023-05-23T06:05:39;7.03;;;5.63;;
21611;SDS011;47005;52.292;13.452;2023-05-23T06:08:05;9.00;;;6.57;;
21611;SDS011;47005;52.292;13.452;2023-05-23T06:10:31;11.05;;;5.68;;
21611;SDS011;47005;52.292;13.452;2023-05-23T06:12:58;7.80;;;5.70;;
21611;SDS011;47005;52.292;13.452;2023-05-23T06:15:24;7.95;;;5.95;;
21611;SDS011;47005;52.292;13.452;2023-05-23T06:17:50;10.88;;;6.55;;
21611;SDS011;47005;52.292;13.452;2023-05-23T06:20:16;9.38;;;6.65;;
21611;SDS011;47005;52.292;13.452;2023-05-23T06:22:42;9.10;;;6.22;;
21611;SDS011;47005;52.292;13.452;2023-05-23T06:25:07;8.85;;;6.80;;
21611;SDS011;47005;52.292;13.452;2023-05-23T06:27:33;11.95;;;6.50;;
21611;SDS011;47005;52.292;13.452;2023-05-23T06:29:59;8.50;;;6.15;;
21611;SDS011;47005;52.292;13.452;2023-05-23T06:32:24;12.05;;;6.25;;
21611;SDS011;47005;52.292;13.452;2023-05-23T06:34:50;9.98;;;6.47;;
21611;SDS011;47005;52.292;13.452;2023-05-23T06:37:16;10.90;;;7.15;;
21611;SDS011;47005;52.292;13.452;2023-05-23T06:39:42;9.40;;;6.50;;
21611;SDS011;47005;52.292;13.452;2023-05-23T06:42:07;9.40;;;6.47;;
21611;SDS011;47005;52.292;13.452;2023-05-23T06:44:33;9.80;;;7.05;;
21611;SDS011;47005;52.292;13.452;2023-05-23T06:46:59;16.27;;;6.35;;
21611;SDS011;47005;52.292;13.452;2023-05-23T06:49:24;10.57;;;6.13;;
21611;SDS011;47005;52.292;13.452;2023-05-23T06:51:51;12.07;;;7.00;;
21611;SDS011;47005;52.292;13.452;2023-05-23T06:54:16;8.70;;;6.47;;
21611;SDS011;47005;52.292;13.452;2023-05-23T06:56:42;7.72;;;5.68;;
21611;SDS011;47005;52.292;13.452;2023-05-23T06:59:08;9.60;;;6.32;;
21611;SDS011;47005;52.292;13.452;2023-05-23T07:01:34;9.85;;;6.38;;
21611;SDS011;47005;52.292;13.452;2023-05-23T07:04:00;8.88;;;5.93;;
21611;SDS011;47005;52.292;13.452;2023-05-23T07:06:25;10.45;;;6.28;;
21611;SDS011;47005;52.292;13.452;2023-05-23T07:08:51;9.80;;;6.20;;
21611;SDS011;47005;52.292;13.452;2023-05-23T07:11:18;7.22;;;5.13;;
21611;SDS011;47005;52.292;13.452;2023-05-23T07:13:46;8.02;;;5.70;;
21611;SDS011;47005;52.292;13.452;2023-05-23T07:16:11;6.85;;;5.15;;
21611;SDS011;47005;52.292;13.452;2023-05-23T07:18:37;13.43;;;5.97;;
21611;SDS011;47005;52.292;13.452;2023-05-23T07:21:03;10.57;;;5.80;;
21611;SDS011;47005;52.292;13.452;2023-05-23T07:23:31;8.32;;;6.05;;
21611;SDS011;47005;52.292;13.452;2023-05-23T07:25:58;17.77;;;5.57;;
21611;SDS011;47005;52.292;13.452;2023-05-23T07:28:24;7.82;;;5.63;;
21611;SDS011;47005;52.292;13.452;2023-05-23T07:30:50;10.25;;;5.93;;
21611;SDS011;47005;52.292;13.452;2023-05-23T07:33:16;9.55;;;4.72;;
21611;SDS011;47005;52.292;13.452;2023-05-23T07:35:45;15.52;;;5.50;;
21611;SDS011;47005;52.292;13.452;2023-05-23T07:38:10;5.97;;;4.82;;
21611;SDS011;47005;52.292;13.452;2023-05-23T07:40:36;7.20;;;4.82;;
21611;SDS011;47005;52.292;13.452;2023-05-23T07:43:04;8.77;;;5.45;;
21611;SDS011;47005;52.292;13.452;2023-05-23T07:45:29;6.90;;;5.15;;
21611;SDS011;47005;52.292;13.452;2023-05-23T07:47:55;7.75;;;4.38;;
21611;SDS011;47005;52.292;13.452;2023-05-23T07:50:21;6.35;;;4.63;;
21611;SDS011;47005;52.292;13.452;2023-05-23T07:52:47;9.98;;;3.88;;
21611;SDS011;47005;52.292;13.452;2023-05-23T07:55:15;9.27;;;5.15;;
21611;SDS011;47005;52.292;13.452;2023-05-23T07:57:40;9.25;;;4.63;;
21611;SDS011;47005;52.292;13.452;2023-05-23T08:00:06;7.10;;;4.85;;
21611;SDS011;47005;52.292;13.452;2023-05-23T08:02:33;6.35;;;4.30;;
21611;SDS011;47005;52.292;13.452;2023-05-23T08:04:59;6.68;;;4.03;;
21611;SDS011;47005;52.292;13.452;2023-05-23T08:07:25;8.82;;;3.97;;
21611;SDS011;47005;52.292;13.452;2023-05-23T08:09:51;6.40;;;4.65;;
21611;SDS011;47005;52.292;13.452;2023-05-23T08:12:16;6.88;;;4.05;;
21611;SDS011;47005;52.292;13.452;2023-05-23T08:14:42;5.45;;;3.70;;
21611;SDS011;47005;52.292;13.452;2023-05-23T08:17:09;6.43;;;3.90;;
21611;SDS011;47005;52.292;13.452;2023-05-23T08:19:36;13.55;;;3.95;;
21611;SDS011;47005;52.292;13.452;2023-05-23T08:22:01;8.25;;;3.75;;
21611;SDS011;47005;52.292;13.452;2023-05-23T08:24:28;7.57;;;4.55;;
21611;SDS011;47005;52.292;13.452;2023-05-23T08:26:54;7.28;;;3.97;;
21611;SDS011;47005;52.292;13.452;2023-05-23T08:29:20;8.18;;;4.03;;
21611;SDS011;47005;52.292;13.452;2023-05-23T08:31:46;6.47;;;3.92;;
21611;SDS011;47005;52.292;13.452;2023-05-23T08:34:11;6.88;;;4.20;;
21611;SDS011;47005;52.292;13.452;2023-05-23T08:36:38;6.30;;;3.92;;
21611;SDS011;47005;52.292;13.452;2023-05-23T08:39:04;5.68;;;3.10;;
21611;SDS011;47005;52.292;13.452;2023-05-23T08:41:29;4.65;;;3.17;;
21611;SDS011;47005;52.292;13.452;2023-05-23T08:43:55;5.60;;;3.53;;
21611;SDS011;47005;52.292;13.452;2023-05-23T08:46:21;8.35;;;3.75;;
21611;SDS011;47005;52.292;13.452;2023-05-23T08:48:53;6.43;;;4.70;;
21611;SDS011;47005;52.292;13.452;2023-05-23T08:51:24;6.85;;;4.10;;
21611;SDS011;47005;52.292;13.452;2023-05-23T08:53:50;6.43;;;4.40;;
21611;SDS011;47005;52.292;13.452;2023-05-23T08:56:20;6.68;;;4.53;;
21611;SDS011;47005;52.292;13.452;2023-05-23T08:58:49;5.90;;;3.45;;
21611;SDS011;47005;52.292;13.452;2023-05-23T09:01:17;6.45;;;4.22;;
21611;SDS011;47005;52.292;13.452;2023-05-23T09:03:44;6.53;;;4.20;;
21611;SDS011;47005;52.292;13.452;2023-05-23T09:06:10;6.80;;;4.50;;
21611;SDS011;47005;52.292;13.452;2023-05-23T09:08:36;6.72;;;4.68;;
21611;SDS011;47005;52.292;13.452;2023-05-23T09:11:02;7.07;;;5.07;;
21611;SDS011;47005;52.292;13.452;2023-05-23T09:13:30;8.43;;;5.50;;
21611;SDS011;47005;52.292;13.452;2023-05-23T09:16:00;11.07;;;6.13;;
21611;SDS011;47005;52.292;13.452;2023-05-23T09:18:40;8.52;;;5.75;;
21611;SDS011;47005;52.292;13.452;2023-05-23T09:21:07;9.18;;;5.55;;
21611;SDS011;47005;52.292;13.452;2023-05-23T09:23:34;7.75;;;5.38;;
21611;SDS011;47005;52.292;13.452;2023-05-23T09:26:04;8.70;;;6.32;;
21611;SDS011;47005;52.292;13.452;2023-05-23T09:28:32;8.43;;;6.15;;
21611;SDS011;47005;52.292;13.452;2023-05-23T09:31:02;10.32;;;5.75;;
21611;SDS011;47005;52.292;13.452;2023-05-23T09:33:37;8.65;;;6.88;;
21611;SDS011;47005;52.292;13.452;2023-05-23T09:36:05;11.60;;;7.20;;
21611;SDS011;47005;52.292;13.452;2023-05-23T09:38:31;9.05;;;7.45;;
21611;SDS011;47005;52.292;13.452;2023-05-23T09:41:07;12.60;;;7.78;;
21611;SDS011;47005;52.292;13.452;2023-05-23T09:43:36;11.82;;;7.28;;
21611;SDS011;47005;52.292;13.452;2023-05-23T09:46:19;12.30;;;8.75;;
21611;SDS011;47005;52.292;13.452;2023-05-23T09:48:51;11.30;;;9.48;;
21611;SDS011;47005;52.292;13.452;2023-05-23T09:51:19;10.40;;;8.40;;
21611;SDS011;47005;52.292;13.452;2023-05-23T09:53:46;13.73;;;7.53;;
21611;SDS011;47005;52.292;13.452;2023-05-23T09:56:12;11.45;;;8.73;;
21611;SDS011;47005;52.292;13.452;2023-05-23T09:58:42;11.80;;;8.52;;
21611;SDS011;47005;52.292;13.452;2023-05-23T10:01:11;9.40;;;7.72;;
21611;SDS011;47005;52.292;13.452;2023-05-23T10:03:44;10.25;;;8.50;;
21611;SDS011;47005;52.292;13.452;2023-05-23T10:09:12;12.05;;;8.55;;
21611;SDS011;47005;52.292;13.452;2023-05-23T10:14:27;12.88;;;8.88;;
21611;SDS011;47005;52.292;13.452;2023-05-23T10:16:59;10.10;;;8.30;;
21611;SDS011;47005;52.292;13.452;2023-05-23T10:22:07;12.23;;;8.20;;
21611;SDS011;47005;52.292;13.452;2023-05-23T10:24:36;11.55;;;8.70;;
21611;SDS011;47005;52.292;13.452;2023-05-23T10:27:02;11.02;;;8.30;;
21611;SDS011;47005;52.292;13.452;2023-05-23T10:29:28;16.67;;;9.75;;
21611;SDS011;47005;52.292;13.452;2023-05-23T10:31:57;12.52;;;9.80;;
21611;SDS011;47005;52.292;13.452;2023-05-23T10:37:09;16.20;;;10.45;;
21611;SDS011;47005;52.292;13.452;2023-05-23T10:42:16;13.50;;;9.60;;
21611;SDS011;47005;52.292;13.452;2023-05-23T10:44:48;18.45;;;10.52;;
21611;SDS011;47005;52.292;13.452;2023-05-23T10:47:24;16.00;;;10.00;;
21611;SDS011;47005;52.292;13.452;2023-05-23T10:49:54;14.55;;;10.90;;
21611;SDS011;47005;52.292;13.452;2023-05-23T10:52:21;14.45;;;9.75;;
21611;SDS011;47005;52.292;13.452;2023-05-23T10:54:51;14.98;;;10.30;;
21611;SDS011;47005;52.292;13.452;2023-05-23T10:57:23;15.73;;;11.57;;
21611;SDS011;47005;52.292;13.452;2023-05-23T10:59:53;13.38;;;9.73;;
21611;SDS011;47005;52.292;13.452;2023-05-23T11:02:24;15.57;;;10.52;;
21611;SDS011;47005;52.292;13.452;2023-05-23T11:08:10;19.48;;;12.23;;
21611;SDS011;47005;52.292;13.452;2023-05-23T11:13:17;16.83;;;11.80;;
21611;SDS011;47005;52.292;13.452;2023-05-23T11:15:45;14.25;;;10.40;;
21611;SDS011;47005;52.292;13.452;2023-05-23T11:18:18;16.05;;;11.60;;
21611;SDS011;47005;52.292;13.452;2023-05-23T11:20:46;15.88;;;12.25;;
21611;SDS011;47005;52.292;13.452;2023-05-23T11:23:13;15.70;;;11.82;;
21611;SDS011;47005;52.292;13.452;2023-05-23T11:28:15;15.38;;;11.18;;
21611;SDS011;47005;52.292;13.452;2023-05-23T11:30:41;15.90;;;10.95;;
21611;SDS011;47005;52.292;13.452;2023-05-23T11:33:11;14.68;;;11.65;;
21611;SDS011;47005;52.292;13.452;2023-05-23T11:35:41;19.05;;;12.10;;
21611;SDS011;47005;52.292;13.452;2023-05-23T11:38:08;17.85;;;12.02;;
21611;SDS011;47005;52.292;13.452;2023-05-23T11:40:35;17.13;;;11.65;;
21611;SDS011;47005;52.292;13.452;2023-05-23T11:43:03;15.00;;;11.80;;
21611;SDS011;47005;52.292;13.452;2023-05-23T11:45:38;14.63;;;11.25;;
21611;SDS011;47005;52.292;13.452;2023-05-23T11:48:13;16.60;;;12.45;;
21611;SDS011;47005;52.292;13.452;2023-05-23T11:50:44;15.40;;;11.20;;
21611;SDS011;47005;52.292;13.452;2023-05-23T11:53:14;15.45;;;11.73;;
21611;SDS011;47005;52.292;13.452;2023-05-23T11:55:49;18.42;;;11.38;;
21611;SDS011;47005;52.292;13.452;2023-05-23T11:58:18;16.15;;;11.43;;
21611;SDS011;47005;52.292;13.452;2023-05-23T12:00:50;14.90;;;11.02;;
21611;SDS011;47005;52.292;13.452;2023-05-23T12:03:15;16.67;;;11.85;;
21611;SDS011;47005;52.292;13.452;2023-05-23T12:05:44;14.18;;;10.40;;
21611;SDS011;47005;52.292;13.452;2023-05-23T12:08:10;16.48;;;11.02;;
21611;SDS011;47005;52.292;13.452;2023-05-23T12:10:47;16.20;;;10.77;;
21611;SDS011;47005;52.292;13.452;2023-05-23T12:13:23;16.88;;;11.30;;
21611;SDS011;47005;52.292;13.452;2023-05-23T12:15:58;16.27;;;10.95;;
21611;SDS011;47005;52.292;13.452;2023-05-23T12:18:28;18.65;;;10.60;;
21611;SDS011;47005;52.292;13.452;2023-05-23T12:21:02;15.20;;;10.60;;
21611;SDS011;47005;52.292;13.452;2023-05-23T12:23:30;14.25;;;10.18;;
21611;SDS011;47005;52.292;13.452;2023-05-23T12:25:56;16.40;;;11.43;;
21611;SDS011;47005;52.292;13.452;2023-05-23T12:28:44;12.00;;;9.27;;
21611;SDS011;47005;52.292;13.452;2023-05-23T12:31:16;14.13;;;10.38;;
21611;SDS011;47005;52.292;13.452;2023-05-23T12:33:42;18.33;;;11.23;;
21611;SDS011;47005;52.292;13.452;2023-05-23T12:36:10;15.40;;;10.75;;
21611;SDS011;47005;52.292;13.452;2023-05-23T12:38:36;13.73;;;10.50;;
21611;SDS011;47005;52.292;13.452;2023-05-23T12:41:10;14.13;;;11.05;;
21611;SDS011;47005;52.292;13.452;2023-05-23T12:43:39;14.60;;;10.23;;
21611;SDS011;47005;52.292;13.452;2023-05-23T12:46:05;17.02;;;10.60;;
21611;SDS011;47005;52.292;13.452;2023-05-23T12:48:32;13.80;;;10.60;;
21611;SDS011;47005;52.292;13.452;2023-05-23T12:50:58;15.93;;;11.07;;
21611;SDS011;47005;52.292;13.452;2023-05-23T12:53:25;16.17;;;10.48;;
21611;SDS011;47005;52.292;13.452;2023-05-23T12:55:51;14.07;;;10.05;;
21611;SDS011;47005;52.292;13.452;2023-05-23T12:58:16;14.43;;;10.77;;
21611;SDS011;47005;52.292;13.452;2023-05-23T13:00:42;15.80;;;11.30;;
21611;SDS011;47005;52.292;13.452;2023-05-23T13:03:07;12.55;;;9.70;;
21611;SDS011;47005;52.292;13.452;2023-05-23T13:05:33;12.43;;;9.60;;
21611;SDS011;47005;52.292;13.452;2023-05-23T13:07:59;14.93;;;11.15;;
21611;SDS011;47005;52.292;13.452;2023-05-23T13:10:24;13.88;;;10.98;;
21611;SDS011;47005;52.292;13.452;2023-05-23T13:12:50;16.63;;;11.23;;
21611;SDS011;47005;52.292;13.452;2023-05-23T13:15:16;16.60;;;10.98;;
21611;SDS011;47005;52.292;13.452;2023-05-23T13:17:41;13.77;;;10.85;;
21611;SDS011;47005;52.292;13.452;2023-05-23T13:20:07;15.80;;;12.00;;
21611;SDS011;47005;52.292;13.452;2023-05-23T13:22:34;18.27;;;11.68;;
21611;SDS011;47005;52.292;13.452;2023-05-23T13:25:00;18.88;;;11.57;;
21611;SDS011;47005;52.292;13.452;2023-05-23T13:27:26;15.93;;;11.73;;
21611;SDS011;47005;52.292;13.452;2023-05-23T13:29:51;17.17;;;11.02;;
21611;SDS011;47005;52.292;13.452;2023-05-23T13:32:17;16.48;;;11.48;;
21611;SDS011;47005;52.292;13.452;2023-05-23T13:34:42;15.98;;;12.55;;
21611;SDS011;47005;52.292;13.452;2023-05-23T13:37:08;18.02;;;11.88;;
21611;SDS011;47005;52.292;13.452;2023-05-23T13:39:34;20.38;;;12.88;;
21611;SDS011;47005;52.292;13.452;2023-05-23T13:41:59;15.00;;;11.93;;
21611;SDS011;47005;52.292;13.452;2023-05-23T13:44:25;16.83;;;12.70;;
21611;SDS011;47005;52.292;13.452;2023-05-23T13:46:50;17.08;;;12.88;;
21611;SDS011;47005;52.292;13.452;2023-05-23T13:49:16;16.27;;;11.73;;
21611;SDS011;47005;52.292;13.452;2023-05-23T13:51:42;18.17;;;13.02;;
21611;SDS011;47005;52.292;13.452;2023-05-23T13:54:08;19.30;;;12.63;;
21611;SDS011;47005;52.292;13.452;2023-05-23T13:56:34;15.77;;;11.63;;
21611;SDS011;47005;52.292;13.452;2023-05-23T13:59:00;17.88;;;13.60;;
21611;SDS011;47005;52.292;13.452;2023-05-23T14:01:26;16.23;;;12.32;;
21611;SDS011;47005;52.292;13.452;2023-05-23T14:03:52;20.05;;;13.27;;
21611;SDS011;47005;52.292;13.452;2023-05-23T14:06:18;16.92;;;13.82;;
21611;SDS011;47005;52.292;13.452;2023-05-23T14:08:44;21.65;;;15.05;;
21611;SDS011;47005;52.292;13.452;2023-05-23T14:11:10;17.55;;;13.48;;
21611;SDS011;47005;52.292;13.452;2023-05-23T14:13:35;18.23;;;13.65;;
21611;SDS011;47005;52.292;13.452;2023-05-23T14:16:01;17.83;;;13.38;;
21611;SDS011;47005;52.292;13.452;2023-05-23T14:18:27;18.35;;;13.75;;
21611;SDS011;47005;52.292;13.452;2023-05-23T14:20:53;18.23;;;13.05;;
21611;SDS011;47005;52.292;13.452;2023-05-23T14:23:18;16.90;;;13.00;;
21611;SDS011;47005;52.292;13.452;2023-05-23T14:25:44;17.98;;;13.23;;
21611;SDS011;47005;52.292;13.452;2023-05-23T14:28:10;18.83;;;14.25;;
21611;SDS011;47005;52.292;13.452;2023-05-23T14:30:37;19.95;;;14.75;;
21611;SDS011;47005;52.292;13.452;2023-05-23T14:33:02;19.67;;;14.32;;
21611;SDS011;47005;52.292;13.452;2023-05-23T14:35:28;18.92;;;14.30;;
21611;SDS011;47005;52.292;13.452;2023-05-23T14:37:53;17.63;;;14.30;;
21611;SDS011;47005;52.292;13.452;2023-05-23T14:40:19;18.98;;;13.98;;
21611;SDS011;47005;52.292;13.452;2023-05-23T14:42:45;22.40;;;15.68;;
21611;SDS011;47005;52.292;13.452;2023-05-23T14:45:10;26.80;;;16.15;;
21611;SDS011;47005;52.292;13.452;2023-05-23T14:47:36;20.35;;;13.70;;
21611;SDS011;47005;52.292;13.452;2023-05-23T14:50:02;22.38;;;14.60;;
21611;SDS011;47005;52.292;13.452;2023-05-23T14:52:28;20.90;;;14.57;;
21611;SDS011;47005;52.292;13.452;2023-05-23T14:54:54;18.80;;;13.00;;